Airfield :
LOGIN :

Register | Disclaimer

   EN    FR    IT 

 










Legend :    VFR   Marginal VFR   IFR   Intensive IFR   Very Intensive IFR
Visi :
Ceiling :
>= 8 km
>= 3000ft
5 to 8 km
1000 to 3000 ft
1500m to 5 km
500 to 1000 ft
800 to 1500m
200 to 500 ft
< 800m
< 200 ft
Symbols :   Thunderstorms  Fog  Heavy snow  Heavy precipitations  Wind > 20 kt
SIGMETs :     Misc.  Thunderstorms  Icing  Turbulence  Mountain Waves  Volcanic Ashes






- Airport Elevation : 160 ft
- IATA code : FMO


EDDG - Münster Osnabrück Int.

CURRENT METAR :
  • 231120Z 24020KT 9999 -RA BKN014 11/10 Q1004 BECMG 23025G40KT RA BKN015

EXPIRED METARs :
  • 231050Z 24019KT 9999 -RA FEW005 SCT009 BKN014 11/09 Q1005 RERA BECMG 23025G40KT RA BKN015
  • 231020Z 20007KT 160V240 7000 RADZ BKN007 BKN013 08/08 Q1005 BECMG 20015G25KT 4000
  • 230950Z 18006KT 150V210 3500 RADZ BKN005 BKN012 07/07 Q1006 BECMG 20015G25KT BKN004
  • 230920Z 15005KT 120V190 4000 RADZ BKN005 BKN012 07/06 Q1007 BECMG 20015G25KT BKN004
  • 230850Z 15005KT 6000 RA SCT010 BKN018 07/06 Q1008 BECMG 20015G25KT 4000 BKN009

TAF TAF EDDG
Valid from the 23 at 12:00 until the 24 at 12:00 UTC


231100Z 2312/2412 24020G35KT 9999 RA BKN012
BECMG 2312/2314 25025G45KT NSW SCT010 BKN015
PROB40
TEMPO 2314/2317 SHRA BKN009CB
BECMG 2314/2317 28015G25KT
BECMG 2319/2322 27010KT
BECMG 2402/2405 22005KT
BECMG 2409/2412 17010KT 4000 -RA BKN010



MET'MAP, your aeronautical weather chart ! - Copyright ORBIFLY December 2007 - Disclaimer

ORBIFLY MET'MAP TEAM :

Programming & Development : Alexandra Zaïnal
Concept & original design : Baudouin d'Aumeries
Assistance for programming : Marc-Olivier Méhu
Technical & hardware support : Manuel Goepfert

Contact : metmap@orbifly.com




SOURCES & CREDITS :

   NOAA